sensor_id;sensor_type;location;lat;lon;timestamp;P1;durP1;ratioP1;P2;durP2;ratioP2
18695;SDS011;22617;43.690;27.956;2022-12-07T00:04:25;8.33;;;2.60;;
18695;SDS011;22617;43.690;27.956;2022-12-07T00:09:29;5.63;;;2.40;;
18695;SDS011;22617;43.690;27.956;2022-12-07T00:14:32;9.47;;;2.80;;
18695;SDS011;22617;43.690;27.956;2022-12-07T00:19:37;5.90;;;2.83;;
18695;SDS011;22617;43.690;27.956;2022-12-07T00:24:40;5.37;;;2.60;;
18695;SDS011;22617;43.690;27.956;2022-12-07T00:29:44;9.47;;;3.13;;
18695;SDS011;22617;43.690;27.956;2022-12-07T00:34:49;6.33;;;2.67;;
18695;SDS011;22617;43.690;27.956;2022-12-07T00:39:52;6.37;;;3.40;;
18695;SDS011;22617;43.690;27.956;2022-12-07T00:44:56;5.07;;;2.60;;
18695;SDS011;22617;43.690;27.956;2022-12-07T00:50:00;6.10;;;2.93;;
18695;SDS011;22617;43.690;27.956;2022-12-07T00:55:05;7.07;;;3.00;;
18695;SDS011;22617;43.690;27.956;2022-12-07T01:00:09;5.20;;;3.10;;
18695;SDS011;22617;43.690;27.956;2022-12-07T01:05:14;7.60;;;3.27;;
18695;SDS011;22617;43.690;27.956;2022-12-07T01:10:18;6.03;;;2.90;;
18695;SDS011;22617;43.690;27.956;2022-12-07T01:15:21;8.13;;;3.57;;
18695;SDS011;22617;43.690;27.956;2022-12-07T01:20:26;8.90;;;3.60;;
18695;SDS011;22617;43.690;27.956;2022-12-07T01:25:29;13.90;;;3.90;;
18695;SDS011;22617;43.690;27.956;2022-12-07T01:30:33;6.90;;;3.60;;
18695;SDS011;22617;43.690;27.956;2022-12-07T01:35:38;7.60;;;3.63;;
18695;SDS011;22617;43.690;27.956;2022-12-07T01:40:41;9.07;;;3.60;;
18695;SDS011;22617;43.690;27.956;2022-12-07T01:45:44;7.80;;;3.60;;
18695;SDS011;22617;43.690;27.956;2022-12-07T01:50:50;5.97;;;3.17;;
18695;SDS011;22617;43.690;27.956;2022-12-07T01:55:56;7.20;;;3.60;;
18695;SDS011;22617;43.690;27.956;2022-12-07T02:01:02;9.70;;;3.80;;
18695;SDS011;22617;43.690;27.956;2022-12-07T02:06:07;7.17;;;3.10;;
18695;SDS011;22617;43.690;27.956;2022-12-07T02:11:10;6.17;;;3.63;;
18695;SDS011;22617;43.690;27.956;2022-12-07T02:16:17;7.43;;;3.40;;
18695;SDS011;22617;43.690;27.956;2022-12-07T02:21:32;9.03;;;3.97;;
18695;SDS011;22617;43.690;27.956;2022-12-07T02:26:45;9.57;;;3.83;;
18695;SDS011;22617;43.690;27.956;2022-12-07T02:32:12;5.53;;;3.50;;
18695;SDS011;22617;43.690;27.956;2022-12-07T02:37:24;10.10;;;4.40;;
18695;SDS011;22617;43.690;27.956;2022-12-07T02:42:36;9.47;;;4.30;;
18695;SDS011;22617;43.690;27.956;2022-12-07T02:47:45;11.40;;;5.60;;
18695;SDS011;22617;43.690;27.956;2022-12-07T02:52:53;12.47;;;5.47;;
18695;SDS011;22617;43.690;27.956;2022-12-07T02:58:06;15.70;;;6.67;;
18695;SDS011;22617;43.690;27.956;2022-12-07T03:03:23;14.60;;;6.57;;
18695;SDS011;22617;43.690;27.956;2022-12-07T03:08:29;15.37;;;6.60;;
18695;SDS011;22617;43.690;27.956;2022-12-07T03:13:41;12.67;;;6.60;;
18695;SDS011;22617;43.690;27.956;2022-12-07T03:18:52;14.57;;;6.53;;
18695;SDS011;22617;43.690;27.956;2022-12-07T03:24:00;15.10;;;6.70;;
18695;SDS011;22617;43.690;27.956;2022-12-07T03:29:09;13.47;;;6.80;;
18695;SDS011;22617;43.690;27.956;2022-12-07T03:34:19;13.53;;;6.90;;
18695;SDS011;22617;43.690;27.956;2022-12-07T03:39:29;13.67;;;7.23;;
18695;SDS011;22617;43.690;27.956;2022-12-07T03:44:37;15.57;;;7.57;;
18695;SDS011;22617;43.690;27.956;2022-12-07T03:49:45;19.63;;;8.17;;
18695;SDS011;22617;43.690;27.956;2022-12-07T03:54:54;20.50;;;8.40;;
18695;SDS011;22617;43.690;27.956;2022-12-07T04:00:03;19.73;;;9.03;;
18695;SDS011;22617;43.690;27.956;2022-12-07T04:05:16;19.40;;;9.10;;
18695;SDS011;22617;43.690;27.956;2022-12-07T04:10:20;21.97;;;9.97;;
18695;SDS011;22617;43.690;27.956;2022-12-07T04:15:23;18.67;;;9.23;;
18695;SDS011;22617;43.690;27.956;2022-12-07T04:20:28;20.07;;;9.27;;
18695;SDS011;22617;43.690;27.956;2022-12-07T04:25:32;19.87;;;9.40;;
18695;SDS011;22617;43.690;27.956;2022-12-07T04:30:35;18.13;;;8.03;;
18695;SDS011;22617;43.690;27.956;2022-12-07T04:35:41;14.37;;;7.50;;
18695;SDS011;22617;43.690;27.956;2022-12-07T04:40:45;13.57;;;7.70;;
18695;SDS011;22617;43.690;27.956;2022-12-07T04:45:48;15.93;;;7.70;;
18695;SDS011;22617;43.690;27.956;2022-12-07T04:50:54;15.47;;;7.80;;
18695;SDS011;22617;43.690;27.956;2022-12-07T04:55:57;16.50;;;7.97;;
18695;SDS011;22617;43.690;27.956;2022-12-07T05:01:02;15.70;;;7.17;;
18695;SDS011;22617;43.690;27.956;2022-12-07T05:06:07;17.47;;;8.67;;
18695;SDS011;22617;43.690;27.956;2022-12-07T05:11:14;19.03;;;8.77;;
18695;SDS011;22617;43.690;27.956;2022-12-07T05:16:31;21.00;;;9.03;;
18695;SDS011;22617;43.690;27.956;2022-12-07T05:21:37;24.10;;;9.70;;
18695;SDS011;22617;43.690;27.956;2022-12-07T05:26:41;20.07;;;9.70;;
18695;SDS011;22617;43.690;27.956;2022-12-07T05:31:45;26.43;;;11.13;;
18695;SDS011;22617;43.690;27.956;2022-12-07T05:36:50;23.40;;;10.77;;
18695;SDS011;22617;43.690;27.956;2022-12-07T05:41:53;27.53;;;11.50;;
18695;SDS011;22617;43.690;27.956;2022-12-07T05:47:15;24.50;;;9.80;;
18695;SDS011;22617;43.690;27.956;2022-12-07T05:52:20;20.93;;;9.83;;
18695;SDS011;22617;43.690;27.956;2022-12-07T05:57:24;22.63;;;10.53;;
18695;SDS011;22617;43.690;27.956;2022-12-07T06:02:27;22.90;;;9.70;;
18695;SDS011;22617;43.690;27.956;2022-12-07T06:07:32;24.57;;;10.60;;
18695;SDS011;22617;43.690;27.956;2022-12-07T06:12:36;25.90;;;11.67;;
18695;SDS011;22617;43.690;27.956;2022-12-07T06:17:41;26.03;;;10.93;;
18695;SDS011;22617;43.690;27.956;2022-12-07T06:22:45;28.67;;;11.47;;
18695;SDS011;22617;43.690;27.956;2022-12-07T06:27:49;27.17;;;12.23;;
18695;SDS011;22617;43.690;27.956;2022-12-07T06:32:52;29.97;;;12.53;;
18695;SDS011;22617;43.690;27.956;2022-12-07T06:37:57;32.17;;;14.00;;
18695;SDS011;22617;43.690;27.956;2022-12-07T06:43:00;30.50;;;12.93;;
18695;SDS011;22617;43.690;27.956;2022-12-07T06:48:04;31.53;;;13.43;;
18695;SDS011;22617;43.690;27.956;2022-12-07T06:53:09;29.00;;;12.67;;
18695;SDS011;22617;43.690;27.956;2022-12-07T06:58:12;31.10;;;13.27;;
18695;SDS011;22617;43.690;27.956;2022-12-07T07:03:16;28.47;;;12.27;;
18695;SDS011;22617;43.690;27.956;2022-12-07T07:08:21;32.37;;;12.63;;
18695;SDS011;22617;43.690;27.956;2022-12-07T07:13:25;27.57;;;12.27;;
18695;SDS011;22617;43.690;27.956;2022-12-07T07:18:28;27.27;;;13.27;;
18695;SDS011;22617;43.690;27.956;2022-12-07T07:23:33;30.23;;;13.27;;
18695;SDS011;22617;43.690;27.956;2022-12-07T07:28:37;26.50;;;12.47;;
18695;SDS011;22617;43.690;27.956;2022-12-07T07:33:40;27.73;;;13.43;;
18695;SDS011;22617;43.690;27.956;2022-12-07T07:38:45;27.47;;;14.20;;
18695;SDS011;22617;43.690;27.956;2022-12-07T07:43:49;29.33;;;13.57;;
18695;SDS011;22617;43.690;27.956;2022-12-07T07:48:52;29.27;;;13.53;;
18695;SDS011;22617;43.690;27.956;2022-12-07T07:53:57;27.83;;;13.17;;
18695;SDS011;22617;43.690;27.956;2022-12-07T07:59:00;33.80;;;15.37;;
18695;SDS011;22617;43.690;27.956;2022-12-07T08:04:04;31.47;;;14.83;;
18695;SDS011;22617;43.690;27.956;2022-12-07T08:09:09;34.00;;;15.67;;
18695;SDS011;22617;43.690;27.956;2022-12-07T08:14:12;38.97;;;17.97;;
18695;SDS011;22617;43.690;27.956;2022-12-07T08:19:16;38.63;;;17.67;;
18695;SDS011;22617;43.690;27.956;2022-12-07T08:24:21;36.37;;;17.73;;
18695;SDS011;22617;43.690;27.956;2022-12-07T08:29:24;42.33;;;17.47;;
18695;SDS011;22617;43.690;27.956;2022-12-07T08:34:28;43.27;;;19.43;;
18695;SDS011;22617;43.690;27.956;2022-12-07T08:39:32;42.70;;;17.83;;
18695;SDS011;22617;43.690;27.956;2022-12-07T08:44:36;43.93;;;17.43;;
18695;SDS011;22617;43.690;27.956;2022-12-07T08:49:41;38.67;;;16.80;;
18695;SDS011;22617;43.690;27.956;2022-12-07T08:54:48;36.80;;;17.30;;
18695;SDS011;22617;43.690;27.956;2022-12-07T08:59:52;42.83;;;18.50;;
18695;SDS011;22617;43.690;27.956;2022-12-07T09:04:55;47.67;;;20.73;;
18695;SDS011;22617;43.690;27.956;2022-12-07T09:10:00;33.57;;;16.43;;
18695;SDS011;22617;43.690;27.956;2022-12-07T09:15:04;32.50;;;16.53;;
18695;SDS011;22617;43.690;27.956;2022-12-07T09:20:09;42.13;;;18.60;;
18695;SDS011;22617;43.690;27.956;2022-12-07T09:25:14;39.70;;;17.70;;
18695;SDS011;22617;43.690;27.956;2022-12-07T09:30:18;46.27;;;19.27;;
18695;SDS011;22617;43.690;27.956;2022-12-07T09:35:22;42.23;;;18.80;;
18695;SDS011;22617;43.690;27.956;2022-12-07T09:40:28;31.67;;;15.50;;
18695;SDS011;22617;43.690;27.956;2022-12-07T09:45:32;36.53;;;17.13;;
18695;SDS011;22617;43.690;27.956;2022-12-07T09:50:38;39.43;;;17.27;;
18695;SDS011;22617;43.690;27.956;2022-12-07T09:55:44;32.73;;;15.83;;
18695;SDS011;22617;43.690;27.956;2022-12-07T10:00:47;32.10;;;15.00;;
18695;SDS011;22617;43.690;27.956;2022-12-07T10:05:51;27.33;;;12.37;;
18695;SDS011;22617;43.690;27.956;2022-12-07T10:10:57;23.90;;;11.90;;
18695;SDS011;22617;43.690;27.956;2022-12-07T10:16:05;27.80;;;12.93;;
18695;SDS011;22617;43.690;27.956;2022-12-07T10:21:11;21.83;;;11.03;;
18695;SDS011;22617;43.690;27.956;2022-12-07T10:26:21;24.77;;;11.97;;
18695;SDS011;22617;43.690;27.956;2022-12-07T10:31:31;23.47;;;11.43;;
18695;SDS011;22617;43.690;27.956;2022-12-07T10:36:35;26.23;;;11.27;;
18695;SDS011;22617;43.690;27.956;2022-12-07T10:41:53;20.43;;;11.03;;
18695;SDS011;22617;43.690;27.956;2022-12-07T10:47:08;24.73;;;11.77;;
18695;SDS011;22617;43.690;27.956;2022-12-07T10:52:27;24.70;;;11.20;;
18695;SDS011;22617;43.690;27.956;2022-12-07T10:57:56;25.47;;;11.70;;
18695;SDS011;22617;43.690;27.956;2022-12-07T11:03:23;16.60;;;8.80;;
18695;SDS011;22617;43.690;27.956;2022-12-07T11:08:39;15.57;;;8.57;;
18695;SDS011;22617;43.690;27.956;2022-12-07T11:13:56;18.30;;;9.50;;
18695;SDS011;22617;43.690;27.956;2022-12-07T11:19:11;22.43;;;10.23;;
18695;SDS011;22617;43.690;27.956;2022-12-07T11:24:37;20.93;;;10.60;;
18695;SDS011;22617;43.690;27.956;2022-12-07T11:35:24;21.47;;;10.83;;
18695;SDS011;22617;43.690;27.956;2022-12-07T11:40:48;18.43;;;9.70;;
18695;SDS011;22617;43.690;27.956;2022-12-07T11:45:56;18.50;;;8.97;;
18695;SDS011;22617;43.690;27.956;2022-12-07T11:51:07;24.07;;;10.47;;
18695;SDS011;22617;43.690;27.956;2022-12-07T11:56:13;22.67;;;10.77;;
18695;SDS011;22617;43.690;27.956;2022-12-07T12:01:25;18.17;;;10.20;;
18695;SDS011;22617;43.690;27.956;2022-12-07T12:06:36;21.13;;;10.63;;
18695;SDS011;22617;43.690;27.956;2022-12-07T12:11:46;23.00;;;11.03;;
18695;SDS011;22617;43.690;27.956;2022-12-07T12:17:43;19.80;;;9.30;;
18695;SDS011;22617;43.690;27.956;2022-12-07T12:22:58;22.60;;;10.83;;
18695;SDS011;22617;43.690;27.956;2022-12-07T12:28:17;20.87;;;10.70;;
18695;SDS011;22617;43.690;27.956;2022-12-07T12:33:26;18.67;;;9.87;;
18695;SDS011;22617;43.690;27.956;2022-12-07T12:38:33;26.50;;;10.70;;
18695;SDS011;22617;43.690;27.956;2022-12-07T12:43:50;24.43;;;10.70;;
18695;SDS011;22617;43.690;27.956;2022-12-07T12:48:57;21.47;;;10.17;;
18695;SDS011;22617;43.690;27.956;2022-12-07T12:54:34;22.47;;;10.13;;
18695;SDS011;22617;43.690;27.956;2022-12-07T12:59:40;21.20;;;9.83;;
18695;SDS011;22617;43.690;27.956;2022-12-07T13:04:50;20.87;;;10.43;;
18695;SDS011;22617;43.690;27.956;2022-12-07T13:09:56;22.10;;;10.07;;
18695;SDS011;22617;43.690;27.956;2022-12-07T13:14:59;26.87;;;11.17;;
18695;SDS011;22617;43.690;27.956;2022-12-07T13:20:07;27.30;;;11.20;;
18695;SDS011;22617;43.690;27.956;2022-12-07T13:25:19;27.30;;;12.73;;
18695;SDS011;22617;43.690;27.956;2022-12-07T13:30:29;29.37;;;11.77;;
18695;SDS011;22617;43.690;27.956;2022-12-07T13:35:36;28.53;;;12.27;;
18695;SDS011;22617;43.690;27.956;2022-12-07T13:40:40;27.83;;;13.03;;
18695;SDS011;22617;43.690;27.956;2022-12-07T13:45:43;29.63;;;13.47;;
18695;SDS011;22617;43.690;27.956;2022-12-07T13:50:55;31.17;;;13.83;;
18695;SDS011;22617;43.690;27.956;2022-12-07T13:55:59;30.33;;;13.53;;
18695;SDS011;22617;43.690;27.956;2022-12-07T14:01:04;24.07;;;12.27;;
18695;SDS011;22617;43.690;27.956;2022-12-07T14:06:21;26.23;;;12.83;;
18695;SDS011;22617;43.690;27.956;2022-12-07T14:11:28;28.33;;;13.63;;
18695;SDS011;22617;43.690;27.956;2022-12-07T14:16:33;27.97;;;13.53;;
18695;SDS011;22617;43.690;27.956;2022-12-07T14:21:41;30.70;;;14.93;;
18695;SDS011;22617;43.690;27.956;2022-12-07T14:26:46;29.67;;;14.73;;
18695;SDS011;22617;43.690;27.956;2022-12-07T14:31:52;43.77;;;18.67;;
18695;SDS011;22617;43.690;27.956;2022-12-07T14:36:58;42.70;;;18.87;;
18695;SDS011;22617;43.690;27.956;2022-12-07T14:42:02;39.03;;;19.27;;
18695;SDS011;22617;43.690;27.956;2022-12-07T14:47:07;42.43;;;19.47;;
18695;SDS011;22617;43.690;27.956;2022-12-07T14:52:33;39.63;;;18.63;;
18695;SDS011;22617;43.690;27.956;2022-12-07T14:57:57;39.70;;;18.13;;
18695;SDS011;22617;43.690;27.956;2022-12-07T15:03:01;43.07;;;18.50;;
18695;SDS011;22617;43.690;27.956;2022-12-07T15:08:08;43.93;;;21.17;;
18695;SDS011;22617;43.690;27.956;2022-12-07T15:13:12;36.47;;;18.97;;
18695;SDS011;22617;43.690;27.956;2022-12-07T15:18:32;35.13;;;18.43;;
18695;SDS011;22617;43.690;27.956;2022-12-07T15:23:37;37.77;;;19.93;;
18695;SDS011;22617;43.690;27.956;2022-12-07T15:28:41;35.33;;;18.60;;
18695;SDS011;22617;43.690;27.956;2022-12-07T15:33:45;40.67;;;20.93;;
18695;SDS011;22617;43.690;27.956;2022-12-07T15:38:50;38.57;;;20.27;;
18695;SDS011;22617;43.690;27.956;2022-12-07T15:44:13;46.70;;;21.77;;
18695;SDS011;22617;43.690;27.956;2022-12-07T15:49:34;41.83;;;19.83;;
18695;SDS011;22617;43.690;27.956;2022-12-07T15:54:39;38.03;;;19.43;;
18695;SDS011;22617;43.690;27.956;2022-12-07T15:59:43;37.43;;;18.87;;
18695;SDS011;22617;43.690;27.956;2022-12-07T16:04:46;37.33;;;18.43;;
18695;SDS011;22617;43.690;27.956;2022-12-07T16:09:51;33.23;;;16.47;;
18695;SDS011;22617;43.690;27.956;2022-12-07T16:14:54;36.20;;;17.20;;
18695;SDS011;22617;43.690;27.956;2022-12-07T16:19:57;30.00;;;15.13;;
18695;SDS011;22617;43.690;27.956;2022-12-07T16:25:02;30.63;;;15.10;;
18695;SDS011;22617;43.690;27.956;2022-12-07T16:30:07;34.00;;;16.43;;
18695;SDS011;22617;43.690;27.956;2022-12-07T16:35:12;31.57;;;15.50;;
18695;SDS011;22617;43.690;27.956;2022-12-07T16:40:17;36.50;;;17.10;;
18695;SDS011;22617;43.690;27.956;2022-12-07T16:45:20;28.93;;;14.20;;
18695;SDS011;22617;43.690;27.956;2022-12-07T16:50:23;29.37;;;15.27;;
18695;SDS011;22617;43.690;27.956;2022-12-07T16:55:29;31.30;;;15.43;;
18695;SDS011;22617;43.690;27.956;2022-12-07T17:00:32;34.57;;;17.17;;
18695;SDS011;22617;43.690;27.956;2022-12-07T17:05:37;34.10;;;17.20;;
18695;SDS011;22617;43.690;27.956;2022-12-07T17:10:43;36.60;;;16.43;;
18695;SDS011;22617;43.690;27.956;2022-12-07T17:15:54;37.40;;;18.67;;
18695;SDS011;22617;43.690;27.956;2022-12-07T17:21:01;36.43;;;18.13;;
18695;SDS011;22617;43.690;27.956;2022-12-07T17:26:08;36.20;;;18.30;;
18695;SDS011;22617;43.690;27.956;2022-12-07T17:31:14;38.50;;;18.10;;
18695;SDS011;22617;43.690;27.956;2022-12-07T17:36:19;35.97;;;17.47;;
18695;SDS011;22617;43.690;27.956;2022-12-07T17:41:26;32.53;;;14.03;;
18695;SDS011;22617;43.690;27.956;2022-12-07T17:46:49;26.00;;;12.40;;
18695;SDS011;22617;43.690;27.956;2022-12-07T17:51:56;27.03;;;12.03;;
18695;SDS011;22617;43.690;27.956;2022-12-07T17:57:18;27.00;;;11.47;;
18695;SDS011;22617;43.690;27.956;2022-12-07T18:02:21;30.00;;;10.80;;
18695;SDS011;22617;43.690;27.956;2022-12-07T18:07:25;49.93;;;11.87;;
18695;SDS011;22617;43.690;27.956;2022-12-07T18:12:30;50.97;;;12.63;;
18695;SDS011;22617;43.690;27.956;2022-12-07T18:17:33;33.23;;;13.07;;
18695;SDS011;22617;43.690;27.956;2022-12-07T18:22:36;39.07;;;14.80;;
18695;SDS011;22617;43.690;27.956;2022-12-07T18:27:42;37.00;;;15.10;;
18695;SDS011;22617;43.690;27.956;2022-12-07T18:32:45;38.43;;;15.80;;
18695;SDS011;22617;43.690;27.956;2022-12-07T18:37:48;38.20;;;17.37;;
18695;SDS011;22617;43.690;27.956;2022-12-07T18:42:53;44.43;;;17.13;;
18695;SDS011;22617;43.690;27.956;2022-12-07T18:47:57;42.23;;;17.80;;
18695;SDS011;22617;43.690;27.956;2022-12-07T18:53:02;44.13;;;18.03;;
18695;SDS011;22617;43.690;27.956;2022-12-07T18:58:08;38.23;;;17.23;;
18695;SDS011;22617;43.690;27.956;2022-12-07T19:03:11;41.10;;;18.20;;
18695;SDS011;22617;43.690;27.956;2022-12-07T19:08:14;42.43;;;17.33;;
18695;SDS011;22617;43.690;27.956;2022-12-07T19:13:19;35.57;;;16.67;;
18695;SDS011;22617;43.690;27.956;2022-12-07T19:18:23;40.67;;;16.53;;
18695;SDS011;22617;43.690;27.956;2022-12-07T19:23:26;37.80;;;16.70;;
18695;SDS011;22617;43.690;27.956;2022-12-07T19:28:31;35.87;;;16.43;;
18695;SDS011;22617;43.690;27.956;2022-12-07T19:33:35;36.67;;;16.63;;
18695;SDS011;22617;43.690;27.956;2022-12-07T19:38:38;37.37;;;16.13;;
18695;SDS011;22617;43.690;27.956;2022-12-07T19:43:43;41.23;;;18.00;;
18695;SDS011;22617;43.690;27.956;2022-12-07T19:48:46;39.07;;;17.17;;
18695;SDS011;22617;43.690;27.956;2022-12-07T19:53:50;41.93;;;16.27;;
18695;SDS011;22617;43.690;27.956;2022-12-07T19:58:55;35.80;;;16.23;;
18695;SDS011;22617;43.690;27.956;2022-12-07T20:04:03;36.97;;;16.97;;
18695;SDS011;22617;43.690;27.956;2022-12-07T20:09:06;38.33;;;16.67;;
18695;SDS011;22617;43.690;27.956;2022-12-07T20:14:12;42.20;;;16.80;;
18695;SDS011;22617;43.690;27.956;2022-12-07T20:19:16;39.07;;;15.80;;
18695;SDS011;22617;43.690;27.956;2022-12-07T20:24:21;38.53;;;15.50;;
18695;SDS011;22617;43.690;27.956;2022-12-07T20:29:26;34.13;;;14.47;;
18695;SDS011;22617;43.690;27.956;2022-12-07T20:34:30;31.60;;;13.70;;
18695;SDS011;22617;43.690;27.956;2022-12-07T20:39:33;29.87;;;12.97;;
18695;SDS011;22617;43.690;27.956;2022-12-07T20:44:38;27.93;;;12.97;;
18695;SDS011;22617;43.690;27.956;2022-12-07T20:49:42;28.17;;;11.73;;
18695;SDS011;22617;43.690;27.956;2022-12-07T20:54:45;24.97;;;11.10;;
18695;SDS011;22617;43.690;27.956;2022-12-07T20:59:50;22.63;;;11.23;;
18695;SDS011;22617;43.690;27.956;2022-12-07T21:04:53;22.90;;;9.47;;
18695;SDS011;22617;43.690;27.956;2022-12-07T21:09:57;20.40;;;10.33;;
18695;SDS011;22617;43.690;27.956;2022-12-07T21:15:01;26.97;;;12.03;;
18695;SDS011;22617;43.690;27.956;2022-12-07T21:20:06;21.27;;;10.77;;
18695;SDS011;22617;43.690;27.956;2022-12-07T21:25:10;25.77;;;10.97;;
18695;SDS011;22617;43.690;27.956;2022-12-07T21:30:16;25.07;;;10.63;;
18695;SDS011;22617;43.690;27.956;2022-12-07T21:35:19;24.50;;;11.63;;
18695;SDS011;22617;43.690;27.956;2022-12-07T21:40:22;26.77;;;11.90;;
18695;SDS011;22617;43.690;27.956;2022-12-07T21:45:27;27.80;;;12.23;;
18695;SDS011;22617;43.690;27.956;2022-12-07T21:50:32;28.60;;;13.23;;
18695;SDS011;22617;43.690;27.956;2022-12-07T21:55:38;34.67;;;13.47;;
18695;SDS011;22617;43.690;27.956;2022-12-07T22:00:43;31.97;;;14.53;;
18695;SDS011;22617;43.690;27.956;2022-12-07T22:05:46;29.70;;;14.13;;
18695;SDS011;22617;43.690;27.956;2022-12-07T22:10:50;39.73;;;16.70;;
18695;SDS011;22617;43.690;27.956;2022-12-07T22:15:54;43.33;;;17.70;;
18695;SDS011;22617;43.690;27.956;2022-12-07T22:20:58;55.27;;;20.27;;
18695;SDS011;22617;43.690;27.956;2022-12-07T22:26:03;52.60;;;20.37;;
18695;SDS011;22617;43.690;27.956;2022-12-07T22:31:09;57.03;;;20.53;;
18695;SDS011;22617;43.690;27.956;2022-12-07T22:36:14;52.90;;;19.10;;
18695;SDS011;22617;43.690;27.956;2022-12-07T22:41:19;87.80;;;20.47;;
18695;SDS011;22617;43.690;27.956;2022-12-07T22:46:27;58.37;;;19.07;;
18695;SDS011;22617;43.690;27.956;2022-12-07T22:51:31;47.30;;;18.27;;
18695;SDS011;22617;43.690;27.956;2022-12-07T22:56:36;59.50;;;20.33;;
18695;SDS011;22617;43.690;27.956;2022-12-07T23:01:41;48.07;;;18.70;;
18695;SDS011;22617;43.690;27.956;2022-12-07T23:06:45;44.60;;;19.20;;
18695;SDS011;22617;43.690;27.956;2022-12-07T23:11:48;44.10;;;19.50;;
18695;SDS011;22617;43.690;27.956;2022-12-07T23:17:10;43.00;;;17.80;;
18695;SDS011;22617;43.690;27.956;2022-12-07T23:22:14;48.10;;;20.40;;
18695;SDS011;22617;43.690;27.956;2022-12-07T23:27:17;43.77;;;18.97;;
18695;SDS011;22617;43.690;27.956;2022-12-07T23:32:22;44.70;;;19.13;;
18695;SDS011;22617;43.690;27.956;2022-12-07T23:37:25;42.77;;;18.43;;
18695;SDS011;22617;43.690;27.956;2022-12-07T23:42:29;52.00;;;20.67;;
18695;SDS011;22617;43.690;27.956;2022-12-07T23:47:33;43.57;;;19.43;;
18695;SDS011;22617;43.690;27.956;2022-12-07T23:52:37;48.13;;;19.33;;
18695;SDS011;22617;43.690;27.956;2022-12-07T23:57:40;45.10;;;19.07;;
